Time;durP1;ratioP1;P1;durP2;ratioP2;P2;SDS_P1;SDS_P2;PMS_P1;PMS_P2;Temp;Humidity;BMP_temperature;BMP_pressure;BME280_temperature;BME280_humidity;BME280_pressure;Samples;Min_cycle;Max_cycle;Signal;HPM_P1;HPM_P2
2021/03/26 00:01:46;;;;;;;41.50;27.73;;;;;;;8.76;71.98;100320.28;5036520;28;20034;-68
2021/03/26 00:04:24;;;;;;;42.72;27.38;;;;;;;8.75;72.10;100318.53;5036227;28;20044;-67
2021/03/26 00:06:51;;;;;;;38.90;27.33;;;;;;;8.75;71.90;100318.53;5001893;28;20029;-67
2021/03/26 00:09:26;;;;;;;37.30;26.63;;;;;;;8.73;72.13;100315.94;5035973;28;20533;-68
2021/03/26 00:12:07;;;;;;;40.92;27.92;;;;;;;8.73;72.10;100303.00;5036034;28;20037;-68
2021/03/26 00:14:41;;;;;;;39.70;27.67;;;;;;;8.74;72.08;100306.44;5018282;28;20056;-68
2021/03/26 00:17:20;;;;;;;43.45;27.10;;;;;;;8.71;72.18;100309.84;5035958;28;20168;-68
2021/03/26 00:19:54;;;;;;;40.13;27.92;;;;;;;8.72;72.12;100305.56;5001761;28;20038;-68
2021/03/26 00:22:32;;;;;;;42.92;29.17;;;;;;;8.71;72.08;100312.44;5017594;28;20042;-68
2021/03/26 00:25:08;;;;;;;38.63;27.02;;;;;;;8.70;71.98;100302.91;5018310;28;20041;-67
2021/03/26 00:27:47;;;;;;;40.47;29.10;;;;;;;8.71;72.00;100307.25;5018149;28;20044;-67
2021/03/26 00:30:25;;;;;;;41.85;27.73;;;;;;;8.70;72.03;100294.31;5002067;28;20390;-67
2021/03/26 00:33:05;;;;;;;39.95;27.80;;;;;;;8.71;71.96;100298.66;5035783;28;20095;-67
2021/03/26 00:35:37;;;;;;;39.47;27.63;;;;;;;8.71;72.25;100294.34;5001401;28;20414;-67
2021/03/26 00:38:14;;;;;;;39.95;27.65;;;;;;;8.71;72.35;100291.75;5017976;28;20072;-67
2021/03/26 00:40:48;;;;;;;43.63;29.25;;;;;;;8.71;71.98;100290.88;5036265;28;20068;-67
2021/03/26 00:43:23;;;;;;;42.40;30.35;;;;;;;8.71;72.04;100290.88;5017539;28;20033;-67
2021/03/26 00:45:55;;;;;;;35.90;26.45;;;;;;;8.70;72.06;100282.25;5017983;28;20034;-67
2021/03/26 00:48:27;;;;;;;42.25;29.40;;;;;;;8.71;71.90;100289.16;5035021;28;20410;-67
2021/03/26 00:51:03;;;;;;;37.35;27.52;;;;;;;8.68;72.08;100283.91;5035031;28;20048;-67
2021/03/26 00:53:38;;;;;;;37.85;26.42;;;;;;;8.68;71.91;100283.91;5035286;28;20413;-67
2021/03/26 00:56:13;;;;;;;43.20;28.83;;;;;;;8.68;72.30;100279.63;5035408;28;20417;-67
2021/03/26 00:58:44;;;;;;;41.60;29.02;;;;;;;8.66;72.30;100281.28;5035063;28;20044;-67
2021/03/26 01:01:12;;;;;;;36.95;27.98;;;;;;;8.66;72.20;100270.06;5017011;28;20521;-67
2021/03/26 01:03:52;;;;;;;38.50;27.67;;;;;;;8.65;72.06;100266.63;5000445;28;20049;-67
2021/03/26 01:06:23;;;;;;;37.42;28.02;;;;;;;8.65;72.16;100260.56;5035189;28;20037;-67
2021/03/26 01:09:04;;;;;;;41.90;30.70;;;;;;;8.64;71.95;100266.59;5035209;28;20061;-67
2021/03/26 01:11:39;;;;;;;38.13;29.17;;;;;;;8.63;72.25;100260.53;5000834;28;20541;-67
2021/03/26 01:14:24;;;;;;;37.40;28.67;;;;;;;8.63;72.18;100267.44;5034601;28;20037;-67
2021/03/26 01:17:10;;;;;;;42.55;29.02;;;;;;;8.61;72.16;100259.63;5017500;28;20045;-67
2021/03/26 01:19:42;;;;;;;42.67;29.70;;;;;;;8.61;72.08;100259.63;5034115;28;20042;-67
2021/03/26 01:22:14;;;;;;;43.88;31.25;;;;;;;8.60;72.12;100254.41;5034414;28;20043;-67
2021/03/26 01:24:52;;;;;;;38.08;27.95;;;;;;;8.60;72.32;100251.84;5017403;28;20040;-67
2021/03/26 01:27:27;;;;;;;44.60;30.60;;;;;;;8.60;72.04;100257.00;5034756;28;20044;-67
2021/03/26 01:30:08;;;;;;;39.50;28.27;;;;;;;8.58;72.18;100250.91;5016666;28;20414;-67
2021/03/26 01:32:44;;;;;;;39.53;29.42;;;;;;;8.58;72.35;100243.16;5000444;28;20064;-67
2021/03/26 01:35:23;;;;;;;42.90;31.13;;;;;;;8.60;72.07;100244.09;5017349;28;20029;-67
2021/03/26 01:37:51;;;;;;;40.22;29.85;;;;;;;8.59;72.34;100244.91;5017115;28;20041;-67
2021/03/26 01:40:27;;;;;;;44.05;30.38;;;;;;;8.60;71.98;100242.34;5034632;28;20544;-67
2021/03/26 01:43:12;;;;;;;42.53;30.63;;;;;;;8.61;72.19;100235.50;5034405;28;20372;-67
2021/03/26 01:45:49;;;;;;;43.88;31.27;;;;;;;8.59;72.26;100232.00;5000615;28;20026;-67
2021/03/26 01:48:32;;;;;;;43.75;30.70;;;;;;;8.57;72.20;100229.34;5033676;28;20214;-67
2021/03/26 01:51:05;;;;;;;40.85;28.70;;;;;;;8.56;72.11;100227.63;5034608;28;20105;-67
2021/03/26 01:53:35;;;;;;;44.95;29.75;;;;;;;8.56;71.88;100225.03;5034092;28;20065;-67
2021/03/26 01:56:11;;;;;;;44.10;28.77;;;;;;;8.54;72.26;100224.13;5033637;28;20498;-67
2021/03/26 01:58:43;;;;;;;38.83;28.20;;;;;;;8.55;72.42;100231.03;5034148;28;20041;-67
2021/03/26 02:01:22;;;;;;;47.28;30.10;;;;;;;8.52;72.16;100215.47;5033955;28;20391;-67
2021/03/26 02:03:56;;;;;;;44.33;30.58;;;;;;;8.51;72.11;100219.72;5015491;28;20498;-67
2021/03/26 02:06:35;;;;;;;41.65;29.88;;;;;;;8.52;72.09;100212.88;5016681;28;20042;-67
2021/03/26 02:09:23;;;;;;;45.47;29.52;;;;;;;8.51;72.08;100209.41;5033681;28;20071;-67
2021/03/26 02:11:59;;;;;;;41.85;30.40;;;;;;;8.51;72.14;100208.53;5016352;28;20040;-67
2021/03/26 02:14:50;;;;;;;43.00;28.35;;;;;;;8.50;72.10;100202.47;5016146;28;20033;-67
2021/03/26 02:17:19;;;;;;;45.55;31.92;;;;;;;8.52;72.25;100198.22;5033824;28;20549;-67
2021/03/26 02:19:51;;;;;;;46.85;30.52;;;;;;;8.51;71.95;100193.03;5033660;28;20045;-67
2021/03/26 02:22:29;;;;;;;43.60;31.08;;;;;;;8.51;72.09;100196.47;5033100;28;20072;-67
2021/03/26 02:25:09;;;;;;;45.83;30.33;;;;;;;8.51;71.99;100199.06;5033024;28;20033;-68
2021/03/26 02:27:41;;;;;;;46.70;30.60;;;;;;;8.51;72.58;100203.38;5033919;28;20132;-67
2021/03/26 02:30:23;;;;;;;42.95;28.58;;;;;;;8.51;72.11;100187.88;5033042;28;20127;-67
2021/03/26 02:32:57;;;;;;;41.33;30.42;;;;;;;8.51;72.02;100193.03;5015951;28;20417;-67
2021/03/26 02:35:31;;;;;;;41.50;30.52;;;;;;;8.50;72.18;100186.97;5015484;28;20041;-67
2021/03/26 02:38:18;;;;;;;44.85;32.28;;;;;;;8.49;72.19;100185.22;5033878;28;20394;-67
2021/03/26 02:41:25;;;;;;;48.50;32.40;;;;;;;8.49;72.06;100192.97;5033677;28;20033;-67
2021/03/26 02:44:21;;;;;;;42.45;31.00;;;;;;;8.46;72.07;100185.13;5030005;28;20045;-67
2021/03/26 02:47:14;;;;;;;41.88;30.23;;;;;;;8.46;72.14;100187.72;5016037;28;20072;-67
2021/03/26 02:50:04;;;;;;;46.15;30.17;;;;;;;8.46;72.24;100187.72;5033720;28;20065;-67
2021/03/26 02:52:54;;;;;;;44.92;31.45;;;;;;;8.45;72.20;100187.66;5033488;28;20075;-67
2021/03/26 02:55:40;;;;;;;45.47;30.63;;;;;;;8.44;72.10;100180.75;4999409;28;20037;-67
2021/03/26 02:58:32;;;;;;;42.08;30.77;;;;;;;8.42;72.05;100172.97;5032817;28;20132;-67
2021/03/26 03:01:27;;;;;;;42.67;30.08;;;;;;;8.40;72.06;100173.78;5033444;28;20042;-67
2021/03/26 03:04:11;;;;;;;42.90;30.92;;;;;;;8.40;72.16;100168.59;5006990;28;20061;-67
2021/03/26 03:07:01;;;;;;;42.75;30.40;;;;;;;8.41;72.21;100170.34;5016741;28;20483;-67
2021/03/26 03:09:46;;;;;;;43.35;31.05;;;;;;;8.39;71.96;100170.28;5037264;28;20033;-67
2021/03/26 03:12:31;;;;;;;42.95;29.83;;;;;;;8.40;72.14;100171.19;5037213;28;20045;-67
2021/03/26 03:15:38;;;;;;;40.78;30.30;;;;;;;8.40;72.22;100166.88;5019448;28;20029;-67
2021/03/26 03:18:11;;;;;;;42.72;30.38;;;;;;;8.40;72.27;100166.88;5019415;28;20037;-67
2021/03/26 03:20:58;;;;;;;42.03;29.80;;;;;;;8.40;72.07;100166.88;5037068;28;20037;-67
2021/03/26 03:24:07;;;;;;;43.35;29.33;;;;;;;8.39;72.08;100159.97;5018928;28;20107;-67
2021/03/26 03:27:10;;;;;;;42.05;29.17;;;;;;;8.39;72.09;100162.53;5019006;28;20047;-67
2021/03/26 03:29:54;;;;;;;39.67;27.98;;;;;;;8.40;72.21;100160.84;5036301;28;20059;-67
2021/03/26 03:32:42;;;;;;;41.80;28.70;;;;;;;8.39;72.11;100167.72;5037022;28;20037;-67
2021/03/26 03:35:28;;;;;;;43.50;28.98;;;;;;;8.38;72.20;100161.69;5003006;28;20125;-67
2021/03/26 03:38:23;;;;;;;41.40;29.02;;;;;;;8.36;72.21;100157.28;5019349;28;20037;-67
2021/03/26 03:40:48;;;;;;;;;;;;;;;8.35;72.12;100163.28;5019850;28;20092;-67
2021/03/26 03:44:01;;;;;;;40.03;28.30;;;;;;;8.33;72.13;100154.66;5002973;28;20051;-67
2021/03/26 03:46:51;;;;;;;45.78;30.50;;;;;;;8.32;72.09;100158.94;5018626;28;20072;-67
2021/03/26 03:49:36;;;;;;;42.75;28.73;;;;;;;8.29;72.06;100150.22;4973083;28;20135;-67
2021/03/26 03:52:05;;;;;;;41.22;29.63;;;;;;;8.32;72.24;100153.75;5018872;28;20411;-67
2021/03/26 03:54:41;;;;;;;44.47;28.00;;;;;;;8.31;72.18;100153.75;5018413;28;20048;-67
2021/03/26 03:57:23;;;;;;;39.10;28.65;;;;;;;8.32;72.19;100155.50;5019076;28;20033;-67
2021/03/26 04:00:14;;;;;;;44.30;30.52;;;;;;;8.29;72.21;100147.66;5018748;28;20044;-67
2021/03/26 04:02:56;;;;;;;44.13;28.88;;;;;;;8.29;72.16;100151.09;5018387;28;20453;-67
2021/03/26 04:06:13;;;;;;;43.45;28.27;;;;;;;8.30;72.37;100146.81;5035829;28;20041;-67
2021/03/26 04:08:58;;;;;;;42.70;29.88;;;;;;;8.30;72.03;100147.69;4912545;28;20163;-67
2021/03/26 04:11:49;;;;;;;42.92;28.92;;;;;;;8.32;72.09;100152.91;5018353;28;20025;-67
2021/03/26 04:14:44;;;;;;;37.88;26.33;;;;;;;8.31;72.27;100148.56;5036198;28;20041;-67
2021/03/26 04:17:30;;;;;;;44.80;29.42;;;;;;;8.30;71.97;100150.25;5035491;28;20518;-67
2021/03/26 04:20:17;;;;;;;40.38;28.80;;;;;;;8.29;72.29;100152.81;5035164;28;20075;-67
2021/03/26 04:22:58;;;;;;;41.17;30.42;;;;;;;8.31;72.11;100153.75;5035837;28;20048;-67
2021/03/26 04:25:44;;;;;;;44.97;30.80;;;;;;;8.28;72.23;100148.47;5017882;28;20091;-67
2021/03/26 04:28:23;;;;;;;40.72;27.45;;;;;;;8.26;72.24;100150.16;5035766;28;20056;-67
2021/03/26 04:31:18;;;;;;;43.80;28.83;;;;;;;8.24;72.17;100150.13;5018601;28;20418;-67
2021/03/26 04:33:57;;;;;;;40.25;28.40;;;;;;;8.25;72.26;100148.41;5035772;28;20040;-67
2021/03/26 04:36:39;;;;;;;37.17;26.75;;;;;;;8.21;72.04;100145.72;5018013;28;20375;-67
2021/03/26 04:39:29;;;;;;;40.67;28.27;;;;;;;8.20;72.28;100145.69;5035768;28;20037;-67
2021/03/26 04:42:26;;;;;;;39.45;28.20;;;;;;;8.20;72.25;100141.38;5035639;28;20041;-67
2021/03/26 04:45:09;;;;;;;45.00;29.75;;;;;;;8.21;72.12;100147.44;5001270;28;20045;-66
2021/03/26 04:47:56;;;;;;;45.13;30.85;;;;;;;8.17;72.27;100141.34;5018356;28;20041;-67
2021/03/26 04:50:38;;;;;;;43.33;28.77;;;;;;;8.17;72.17;100136.16;5017314;28;20034;-67
2021/03/26 04:53:12;;;;;;;45.33;29.48;;;;;;;8.18;72.30;100131.88;5001186;28;20037;-67
2021/03/26 04:55:49;;;;;;;40.78;28.27;;;;;;;8.17;71.95;100130.13;5017583;28;20060;-67
2021/03/26 04:58:37;;;;;;;42.53;28.75;;;;;;;8.17;72.06;100131.00;5001199;28;20556;-67
2021/03/26 05:01:14;;;;;;;43.10;29.13;;;;;;;8.16;72.16;100129.25;5017373;28;20064;-67
2021/03/26 05:04:09;;;;;;;41.45;29.90;;;;;;;8.17;72.08;100122.38;5013909;28;20050;-67
2021/03/26 05:06:49;;;;;;;39.75;26.70;;;;;;;8.16;72.19;100124.09;5000125;28;20538;-67
2021/03/26 05:09:27;;;;;;;39.97;27.50;;;;;;;8.16;72.23;100130.94;5015203;28;20544;-67
2021/03/26 05:12:24;;;;;;;43.17;29.17;;;;;;;8.16;72.15;100128.34;5014754;28;20030;-67
2021/03/26 05:15:08;;;;;;;43.03;28.10;;;;;;;8.14;72.02;100117.13;5013998;28;20072;-67
2021/03/26 05:17:35;;;;;;;41.33;28.05;;;;;;;8.14;72.44;100117.13;5015047;28;20041;-67
2021/03/26 05:20:37;;;;;;;41.65;29.02;;;;;;;8.13;72.16;100118.84;5013665;28;20034;-67
2021/03/26 05:23:17;;;;;;;41.83;28.83;;;;;;;8.12;72.54;100122.25;5013748;28;20153;-67
2021/03/26 05:25:45;;;;;;;41.00;29.60;;;;;;;8.13;72.52;100120.53;5014845;28;20569;-67
2021/03/26 05:28:18;;;;;;;44.25;29.08;;;;;;;8.13;72.08;100128.28;5014834;28;20475;-67
2021/03/26 05:30:51;;;;;;;38.17;27.52;;;;;;;8.12;72.33;100119.66;5013711;28;20034;-67
2021/03/26 05:33:41;;;;;;;37.75;27.05;;;;;;;8.12;72.21;100123.94;5013538;28;20457;-67
2021/03/26 05:36:23;;;;;;;38.72;28.10;;;;;;;8.11;72.06;100123.06;5013625;28;20057;-67
2021/03/26 05:39:10;;;;;;;43.75;29.63;;;;;;;8.09;72.14;100119.56;5013150;28;20048;-67
2021/03/26 05:41:54;;;;;;;42.28;27.08;;;;;;;8.08;72.29;100118.72;5013778;28;20045;-67
2021/03/26 05:44:34;;;;;;;37.70;27.92;;;;;;;8.07;72.47;100123.81;5014630;28;20594;-67
2021/03/26 05:47:11;;;;;;;41.08;28.42;;;;;;;8.06;72.35;100112.63;5014507;28;20116;-67
2021/03/26 05:49:51;;;;;;;38.80;28.58;;;;;;;8.08;72.17;100107.50;5014534;28;20048;-67
2021/03/26 05:52:22;;;;;;;37.30;27.45;;;;;;;8.08;72.26;100116.13;5014121;28;20089;-67
2021/03/26 05:55:08;;;;;;;38.95;28.67;;;;;;;8.07;72.15;100109.22;5013390;28;20061;-67
2021/03/26 05:57:58;;;;;;;40.92;27.92;;;;;;;8.07;72.14;100108.34;5012890;28;20037;-67
2021/03/26 06:00:58;;;;;;;40.90;28.77;;;;;;;8.06;72.28;100109.16;5014004;28;20040;-67
2021/03/26 06:03:48;;;;;;;40.15;26.83;;;;;;;8.03;72.23;100107.38;5029905;28;20168;-67
2021/03/26 06:06:32;;;;;;;39.05;29.17;;;;;;;8.05;72.10;100120.31;5033813;28;20387;-67
2021/03/26 06:09:22;;;;;;;39.75;26.38;;;;;;;8.05;72.42;100116.03;5033674;28;20479;-67
2021/03/26 06:12:29;;;;;;;40.05;26.98;;;;;;;8.07;72.27;100105.75;5016253;28;20124;-67
2021/03/26 06:15:16;;;;;;;38.30;25.35;;;;;;;8.07;72.18;100110.91;5016043;28;20033;-67
2021/03/26 06:18:19;;;;;;;40.70;29.92;;;;;;;8.04;72.20;100111.72;5033601;28;20045;-67
2021/03/26 06:21:04;;;;;;;39.42;28.40;;;;;;;8.04;72.35;100114.28;5016195;28;20033;-67
2021/03/26 06:24:04;;;;;;;39.33;28.75;;;;;;;8.04;72.16;100123.72;5033636;28;20041;-67
2021/03/26 06:26:57;;;;;;;39.95;28.20;;;;;;;8.03;72.34;100119.41;5016153;28;20044;-67
2021/03/26 06:29:45;;;;;;;38.60;27.50;;;;;;;8.02;72.23;100115.09;5033612;28;20033;-67
2021/03/26 06:32:58;;;;;;;40.90;27.95;;;;;;;8.02;72.17;100109.94;5033924;28;20044;-67
2021/03/26 06:36:06;;;;;;;37.83;26.60;;;;;;;8.01;72.20;100109.03;5033164;28;20042;-67
2021/03/26 06:38:50;;;;;;;35.20;26.15;;;;;;;8.01;72.20;100113.34;5033732;28;20135;-67
2021/03/26 06:41:34;;;;;;;;;;;;;;;8.00;72.21;100114.19;5015749;28;20065;-67
2021/03/26 06:44:14;;;;;;;38.35;25.33;;;;;;;8.01;72.38;100103.03;5033392;28;20493;-67
2021/03/26 06:47:06;;;;;;;37.53;27.45;;;;;;;8.03;72.15;100111.66;5016208;28;20037;-67
2021/03/26 06:50:01;;;;;;;37.65;25.73;;;;;;;8.05;72.08;100107.41;5033774;28;20120;-67
2021/03/26 06:52:41;;;;;;;37.58;26.92;;;;;;;8.04;72.27;100105.66;5033119;28;20506;-67
2021/03/26 06:55:45;;;;;;;38.05;27.00;;;;;;;8.02;72.30;100107.34;5033892;28;20037;-67
2021/03/26 06:58:22;;;;;;;36.95;26.17;;;;;;;8.03;72.11;100109.97;5033303;28;20482;-67
2021/03/26 07:01:13;;;;;;;35.50;26.17;;;;;;;8.04;72.27;100116.88;5032670;28;20398;-67
2021/03/26 07:04:20;;;;;;;35.75;25.27;;;;;;;8.03;72.36;100109.06;5015783;28;20075;-67
2021/03/26 07:07:34;;;;;;;36.75;25.90;;;;;;;8.04;72.29;100105.66;5032945;28;20088;-67
2021/03/26 07:10:13;;;;;;;37.40;27.45;;;;;;;8.01;72.29;100111.63;5015526;28;20025;-67
2021/03/26 07:13:03;;;;;;;34.83;24.65;;;;;;;8.04;72.10;100108.25;5015707;28;20048;-68
2021/03/26 07:15:45;;;;;;;37.88;25.55;;;;;;;8.03;72.19;100112.53;5015433;28;20482;-65
2021/03/26 07:18:31;;;;;;;36.33;26.40;;;;;;;8.01;72.32;100111.63;5033746;28;20144;-67
2021/03/26 07:21:09;;;;;;;35.38;24.88;;;;;;;8.05;72.24;100104.81;5015281;28;20399;-68
2021/03/26 07:23:47;;;;;;;37.50;27.60;;;;;;;8.02;72.44;100115.09;5032618;28;20168;-67
2021/03/26 07:26:24;;;;;;;39.22;25.13;;;;;;;8.04;72.41;100115.97;5033265;28;20029;-67
2021/03/26 07:29:02;;;;;;;42.85;26.08;;;;;;;8.04;72.64;100115.97;5016034;28;20076;-68
2021/03/26 07:31:57;;;;;;;33.33;25.02;;;;;;;8.03;72.46;100115.13;5032822;28;20132;-67
2021/03/26 07:34:41;;;;;;;36.55;26.25;;;;;;;8.06;72.44;100110.06;5015199;28;20048;-67
2021/03/26 07:37:44;;;;;;;35.67;25.45;;;;;;;8.04;72.54;100103.97;5015565;28;20493;-67
2021/03/26 07:40:28;;;;;;;36.70;24.33;;;;;;;8.08;72.28;100120.41;5032543;28;20033;-67
2021/03/26 07:43:29;;;;;;;33.72;22.88;;;;;;;8.10;72.27;100112.72;5033281;28;20426;-68
2021/03/26 07:46:16;;;;;;;33.63;23.35;;;;;;;8.12;72.38;100113.63;5032978;28;20052;-67
2021/03/26 07:49:15;;;;;;;29.90;21.98;;;;;;;8.11;72.44;100117.03;4998909;28;20041;-67
2021/03/26 07:52:01;;;;;;;30.23;21.65;;;;;;;8.12;72.65;100117.09;5032651;28;20060;-68
2021/03/26 07:55:04;;;;;;;33.42;22.02;;;;;;;8.12;72.33;100119.66;5000613;28;20475;-67
2021/03/26 07:57:53;;;;;;;31.17;20.77;;;;;;;8.12;72.34;100113.63;5036040;28;20034;-67
2021/03/26 08:00:49;;;;;;;31.85;22.38;;;;;;;8.14;72.46;100115.44;5036087;28;20402;-67
2021/03/26 08:03:42;;;;;;;30.92;20.98;;;;;;;8.15;72.44;100113.69;5035942;28;20141;-67
2021/03/26 08:06:45;;;;;;;31.00;20.05;;;;;;;8.16;72.35;100112.88;5036326;28;20120;-67
2021/03/26 08:09:35;;;;;;;31.60;20.77;;;;;;;8.17;72.31;100120.69;5036078;28;20406;-68
2021/03/26 08:12:40;;;;;;;27.40;18.52;;;;;;;8.16;72.38;100130.94;5018096;28;20044;-67
2021/03/26 08:15:47;;;;;;;28.98;18.10;;;;;;;8.17;72.50;100115.50;5035857;28;20069;-67
2021/03/26 08:18:36;;;;;;;31.45;20.50;;;;;;;8.18;72.94;100108.63;5035706;28;20037;-67
2021/03/26 08:21:26;;;;;;;29.08;19.83;;;;;;;8.18;72.46;100112.06;5035766;28;20044;-67
2021/03/26 08:24:12;;;;;;;31.77;19.05;;;;;;;8.19;72.15;100107.78;5018191;28;20033;-67
2021/03/26 08:27:14;;;;;;;27.50;18.63;;;;;;;8.21;72.19;100112.16;5018121;28;20042;-67
2021/03/26 08:30:21;;;;;;;27.45;19.15;;;;;;;8.25;72.19;100113.13;5035941;28;20057;-67
2021/03/26 08:33:17;;;;;;;28.50;18.70;;;;;;;8.27;72.35;100118.31;5002028;28;20042;-67
2021/03/26 08:36:01;;;;;;;26.55;18.33;;;;;;;8.31;72.49;100115.00;5018157;28;20037;-67
2021/03/26 08:39:08;;;;;;;26.50;18.02;;;;;;;8.33;72.15;100103.88;5035693;28;20088;-67
2021/03/26 08:41:45;;;;;;;23.83;18.03;;;;;;;8.36;72.20;100110.81;5035540;28;20502;-67
2021/03/26 08:44:29;;;;;;;28.73;17.85;;;;;;;8.40;72.25;100110.06;5035147;28;20467;-67
2021/03/26 08:47:13;;;;;;;24.15;16.98;;;;;;;8.45;72.18;100121.41;5017639;28;20558;-67
2021/03/26 08:49:50;;;;;;;26.90;17.27;;;;;;;8.48;72.16;100112.88;5017532;28;20029;-67
2021/03/26 08:53:00;;;;;;;27.42;16.50;;;;;;;8.52;72.47;100109.53;5017634;28;20120;-68
2021/03/26 08:56:17;;;;;;;25.85;16.95;;;;;;;8.55;72.10;100116.50;5035354;28;20132;-67
2021/03/26 08:59:35;;;;;;;24.52;17.25;;;;;;;8.60;72.01;100109.75;4959261;28;20054;-67
2021/03/26 09:02:09;;;;;;;25.27;17.27;;;;;;;8.63;71.96;100109.81;4963842;28;20052;-67
2021/03/26 09:04:59;;;;;;;25.33;16.10;;;;;;;8.65;72.08;100105.53;5017472;28;20087;-67
2021/03/26 09:07:40;;;;;;;26.58;16.85;;;;;;;8.66;71.94;100117.63;5035033;28;20041;-68
2021/03/26 09:10:14;;;;;;;22.85;15.27;;;;;;;8.65;71.64;100103.84;5035120;28;20049;-67
2021/03/26 09:13:07;;;;;;;22.77;14.77;;;;;;;8.68;71.89;100108.19;5034801;28;20042;-67
2021/03/26 09:15:57;;;;;;;23.02;13.75;;;;;;;8.69;71.80;100107.38;5035085;28;20040;-67
2021/03/26 09:19:02;;;;;;;22.60;15.07;;;;;;;8.71;71.73;100095.38;5035027;28;20042;-67
2021/03/26 09:21:42;;;;;;;23.25;15.00;;;;;;;8.74;71.67;100094.56;5035233;28;20037;-67
2021/03/26 09:24:35;;;;;;;25.75;12.55;;;;;;;8.78;71.72;100086.06;5034626;28;20029;-67
2021/03/26 09:27:18;;;;;;;23.75;13.20;;;;;;;8.80;71.60;100092.13;5034711;28;20042;-67
2021/03/26 09:30:02;;;;;;;22.60;12.65;;;;;;;8.81;71.70;100076.66;5035042;28;20449;-67
2021/03/26 09:32:44;;;;;;;21.58;12.13;;;;;;;8.86;71.62;100081.06;5034693;28;20037;-67
2021/03/26 09:35:29;;;;;;;16.05;12.20;;;;;;;8.88;71.63;100075.06;5033979;28;20080;-67
2021/03/26 09:38:06;;;;;;;;;;;;;;;8.91;71.49;100076.88;5035414;28;20113;-67
2021/03/26 09:41:03;;;;;;;19.52;12.23;;;;;;;8.93;71.60;100090.72;5034438;28;20346;-67
2021/03/26 09:43:49;;;;;;;18.67;11.30;;;;;;;8.96;71.28;100085.59;5034271;28;20034;-67
2021/03/26 09:46:24;;;;;;;16.77;11.45;;;;;;;8.99;71.45;100090.84;5034064;28;20033;-67
2021/03/26 09:48:59;;;;;;;;;;;;;;;9.01;71.48;100085.72;5034340;28;20094;-67
2021/03/26 09:51:48;;;;;;;18.15;9.57;;;;;;;9.03;71.51;100077.16;5016713;28;19971;-67
2021/03/26 09:54:22;;;;;;;18.25;12.18;;;;;;;9.05;71.24;100074.59;5016599;28;20045;-68
2021/03/26 09:56:59;;;;;;;15.88;10.45;;;;;;;9.07;71.44;100066.06;5016749;28;20067;-68
2021/03/26 10:00:03;;;;;;;20.60;10.95;;;;;;;9.09;71.51;100069.56;5016788;28;20037;-67
2021/03/26 10:02:47;;;;;;;16.38;9.95;;;;;;;9.11;71.12;100056.66;5033567;28;20053;-68
2021/03/26 10:05:35;;;;;;;14.57;9.27;;;;;;;9.13;71.37;100054.97;5016692;28;20037;-68
2021/03/26 10:08:39;;;;;;;19.20;9.38;;;;;;;9.12;71.32;100054.09;5016229;28;20033;-68
2021/03/26 10:11:10;;;;;;;13.05;8.20;;;;;;;9.13;71.36;100052.38;5032801;28;20040;-67
2021/03/26 10:13:52;;;;;;;18.98;9.55;;;;;;;9.13;71.34;100057.56;5034080;28;20048;-67
2021/03/26 10:16:57;;;;;;;14.07;8.57;;;;;;;9.12;71.17;100051.50;5033472;28;20040;-67
2021/03/26 10:19:32;;;;;;;11.02;7.95;;;;;;;9.11;71.23;100049.75;5033041;28;20041;-67
2021/03/26 10:22:25;;;;;;;10.85;8.00;;;;;;;9.10;71.23;100042.88;5033648;28;20037;-67
2021/03/26 10:25:18;;;;;;;12.05;7.43;;;;;;;9.07;71.48;100040.22;5015162;28;20046;-67
2021/03/26 10:28:13;;;;;;;12.32;7.53;;;;;;;9.06;71.03;100038.47;4998826;28;20585;-67
2021/03/26 10:30:52;;;;;;;9.95;6.47;;;;;;;9.05;70.97;100041.88;5023900;28;20049;-68
2021/03/26 10:33:22;;;;;;;10.75;6.45;;;;;;;9.05;71.14;100031.53;5033806;28;20037;-67
2021/03/26 10:36:29;;;;;;;9.30;5.78;;;;;;;9.03;71.16;100032.34;5033589;28;20125;-67
2021/03/26 10:39:02;;;;;;;8.38;5.15;;;;;;;9.03;71.17;100024.59;4965380;28;20068;-68
2021/03/26 10:41:45;;;;;;;8.40;5.15;;;;;;;9.02;71.13;100017.69;5033511;28;20037;-67
2021/03/26 10:44:20;;;;;;;11.48;5.63;;;;;;;9.01;71.03;100024.53;5033094;28;20056;-67
2021/03/26 10:47:05;;;;;;;8.65;5.72;;;;;;;9.01;70.99;100019.38;5033123;28;20116;-67
2021/03/26 10:49:43;;;;;;;7.18;5.53;;;;;;;8.99;71.03;100014.19;5033968;28;20038;-67
2021/03/26 10:52:59;;;;;;;8.57;4.90;;;;;;;9.00;71.15;100015.03;5033035;28;20052;-67
2021/03/26 10:55:49;;;;;;;10.45;5.88;;;;;;;9.00;70.98;100002.13;4934186;29;20056;-67
2021/03/26 10:58:35;;;;;;;7.70;4.90;;;;;;;9.02;71.06;100008.19;4918178;29;20421;-67
2021/03/26 11:01:10;;;;;;;9.32;5.20;;;;;;;9.04;71.18;100001.34;5003503;28;20514;-67
2021/03/26 11:03:52;;;;;;;11.82;5.20;;;;;;;9.06;70.82;99997.09;5032976;28;20045;-67
2021/03/26 11:06:38;;;;;;;10.63;5.25;;;;;;;9.09;70.76;99988.50;5033414;28;20091;-67
2021/03/26 11:09:21;;;;;;;9.48;4.88;;;;;;;9.12;70.84;99981.69;5033293;28;20045;-67
2021/03/26 11:12:00;;;;;;;10.00;5.22;;;;;;;9.10;71.03;99975.63;5033400;28;20081;-67
2021/03/26 11:14:41;;;;;;;11.93;5.05;;;;;;;9.13;70.90;99980.84;5033271;28;20510;-67
2021/03/26 11:17:21;;;;;;;8.93;4.95;;;;;;;9.15;70.66;99978.31;5032984;28;20038;-68
2021/03/26 11:19:55;;;;;;;8.55;5.28;;;;;;;9.16;70.61;99972.31;5032657;28;20030;-67
2021/03/26 11:22:28;;;;;;;10.20;4.97;;;;;;;9.16;70.71;99977.47;5033250;28;20482;-67
2021/03/26 11:25:06;;;;;;;7.82;4.78;;;;;;;9.17;70.60;99973.16;5033142;28;20080;-67
2021/03/26 11:27:52;;;;;;;10.85;6.35;;;;;;;9.18;70.60;99974.91;5033346;28;20042;-67
2021/03/26 11:30:35;;;;;;;12.32;5.22;;;;;;;9.17;70.67;99962.81;5018435;28;20072;-67
2021/03/26 11:33:18;;;;;;;10.43;5.57;;;;;;;9.17;70.55;99966.28;5037259;28;20048;-67
2021/03/26 11:35:55;;;;;;;7.05;4.95;;;;;;;9.19;70.49;99966.31;5036861;28;20037;-67
2021/03/26 11:38:29;;;;;;;9.30;5.63;;;;;;;9.17;70.36;99957.66;5036824;28;20506;-67
2021/03/26 11:41:13;;;;;;;11.90;5.32;;;;;;;9.16;70.39;99959.38;5036163;28;20041;-67
2021/03/26 11:43:51;;;;;;;9.88;5.70;;;;;;;9.16;70.36;99956.78;5036659;28;20041;-67
2021/03/26 11:46:23;;;;;;;7.57;4.47;;;;;;;9.17;70.60;99945.59;5036771;28;20033;-67
2021/03/26 11:49:14;;;;;;;9.07;4.10;;;;;;;9.17;70.50;99949.88;5018476;28;20034;-67
2021/03/26 11:52:11;;;;;;;9.07;4.80;;;;;;;9.17;70.43;99948.19;5018618;28;20120;-67
2021/03/26 11:54:49;;;;;;;9.68;4.80;;;;;;;9.20;70.43;99932.72;5009618;28;20065;-67
2021/03/26 11:57:23;;;;;;;6.00;5.05;;;;;;;9.23;70.49;99929.34;5018410;28;20618;-67
2021/03/26 12:00:15;;;;;;;6.38;4.22;;;;;;;9.24;70.24;99929.34;5018454;28;20079;-67
2021/03/26 12:02:55;;;;;;;11.05;4.60;;;;;;;9.26;70.38;99930.25;5036370;28;20057;-68
2021/03/26 12:05:35;;;;;;;8.48;4.57;;;;;;;9.29;70.27;99924.25;5036255;28;20033;-67
2021/03/26 12:08:44;;;;;;;7.78;4.97;;;;;;;9.28;70.36;99928.59;5036244;28;20044;-67
2021/03/26 12:11:36;;;;;;;7.70;4.70;;;;;;;9.29;70.41;99932.91;5035670;28;20045;-67
2021/03/26 12:14:22;;;;;;;6.47;4.65;;;;;;;9.29;70.27;99934.63;5035682;28;20048;-67
2021/03/26 12:17:31;;;;;;;8.63;5.10;;;;;;;9.29;70.32;99930.31;5002612;28;20037;-67
2021/03/26 12:20:24;;;;;;;7.90;4.30;;;;;;;9.31;70.19;99932.94;5002179;28;20414;-67
2021/03/26 12:22:59;;;;;;;9.82;4.97;;;;;;;9.29;70.12;99927.75;5023092;28;20137;-67
2021/03/26 12:25:47;;;;;;;7.60;4.03;;;;;;;9.30;70.36;99918.25;5018211;28;20442;-67
2021/03/26 12:28:38;;;;;;;9.10;4.40;;;;;;;9.30;70.23;99923.44;5036247;28;20049;-67
2021/03/26 12:31:17;;;;;;;6.65;4.50;;;;;;;9.30;70.24;99923.44;5017941;28;20072;-67
2021/03/26 12:34:03;;;;;;;6.43;4.63;;;;;;;9.31;70.19;99921.72;5018249;28;20038;-67
2021/03/26 12:36:45;;;;;;;15.93;4.60;;;;;;;9.30;70.22;99913.06;5035997;28;20033;-67
2021/03/26 12:39:41;;;;;;;6.78;4.60;;;;;;;9.32;70.23;99913.13;5035137;28;20056;-67
2021/03/26 12:42:24;;;;;;;9.32;4.00;;;;;;;9.33;69.86;99917.47;5027401;28;20045;-67
2021/03/26 12:45:12;;;;;;;7.55;4.40;;;;;;;9.33;70.27;99900.22;5018518;28;20029;-67